createdAt,value
2023-04-15T00:04:29.623Z,77.19
2023-04-15T00:09:32.413Z,77.23
2023-04-15T00:14:37.080Z,77.11
2023-04-15T00:19:41.109Z,77.22
2023-04-15T00:24:43.965Z,76.67
2023-04-15T00:29:46.646Z,76.29
2023-04-15T00:34:50.152Z,75.97
2023-04-15T00:39:52.974Z,75.78
2023-04-15T00:44:55.712Z,75.83
2023-04-15T00:49:58.640Z,75.48
2023-04-15T00:55:01.901Z,75.57
2023-04-15T01:00:08.370Z,74.96
2023-04-15T01:05:11.194Z,74.84
2023-04-15T01:10:13.949Z,74.97
2023-04-15T01:15:18.306Z,74.37
2023-04-15T01:20:21.064Z,73.86
2023-04-15T01:25:42.965Z,73.55
2023-04-15T01:30:45.953Z,73.15
2023-04-15T01:35:50.780Z,72.41
2023-04-15T01:40:53.722Z,71.85
2023-04-15T01:45:57.664Z,71.13
2023-04-15T01:51:02.591Z,71.18
2023-04-15T01:56:07.680Z,70.64
2023-04-15T02:01:13.519Z,70.00
2023-04-15T02:06:18.695Z,70.18
2023-04-15T02:11:23.512Z,69.46
2023-04-15T02:16:27.484Z,69.56
2023-04-15T02:21:31.560Z,69.16
2023-04-15T02:26:35.944Z,68.20
2023-04-15T02:31:41.502Z,67.56
2023-04-15T02:36:47.295Z,67.42
2023-04-15T02:41:52.416Z,66.82
2023-04-15T02:46:56.606Z,66.38
2023-04-15T02:52:01.016Z,66.05
2023-04-15T02:57:07.120Z,65.93
2023-04-15T03:02:11.621Z,65.72
2023-04-15T03:07:15.772Z,64.84
2023-04-15T03:12:19.682Z,65.66
2023-04-15T03:17:23.441Z,64.59
2023-04-15T03:22:27.705Z,63.83
2023-04-15T03:27:32.511Z,64.23
2023-04-15T03:32:38.674Z,64.20
2023-04-15T03:37:43.957Z,63.89
2023-04-15T03:42:47.720Z,64.02
2023-04-15T03:47:52.035Z,64.13
2023-04-15T03:52:56.461Z,63.79
2023-04-15T03:58:00.437Z,63.88
2023-04-15T04:03:04.336Z,61.80
2023-04-15T04:08:08.447Z,62.11
2023-04-15T04:13:12.117Z,63.17
2023-04-15T04:18:15.998Z,61.16
2023-04-15T04:23:20.170Z,59.62
2023-04-15T04:28:24.103Z,58.78
2023-04-15T04:33:27.867Z,58.32
2023-04-15T04:38:31.898Z,58.10
2023-04-15T04:43:35.818Z,58.50
2023-04-15T04:48:39.755Z,56.13
2023-04-15T04:53:43.756Z,56.59
2023-04-15T04:58:47.758Z,55.63
2023-04-15T05:03:51.908Z,54.94
2023-04-15T05:08:57.054Z,55.54
2023-04-15T05:14:02.630Z,55.37
2023-04-15T05:19:06.692Z,56.30
2023-04-15T05:24:10.744Z,56.16
2023-04-15T05:29:14.769Z,54.66
2023-04-15T05:34:19.140Z,54.30
2023-04-15T05:39:23.095Z,54.40
2023-04-15T05:44:27.235Z,53.90
2023-04-15T05:49:31.242Z,54.58
2023-04-15T05:54:35.211Z,54.64
2023-04-15T05:59:39.267Z,54.53
2023-04-15T06:04:43.483Z,53.90
2023-04-15T06:09:47.432Z,52.04
2023-04-15T06:14:51.639Z,53.15
2023-04-15T06:19:56.271Z,53.29
2023-04-15T06:25:00.485Z,51.28
2023-04-15T06:30:05.050Z,51.35
2023-04-15T06:35:09.672Z,52.02
2023-04-15T06:40:13.624Z,50.65
2023-04-15T06:45:18.134Z,50.16
2023-04-15T06:50:22.102Z,51.71
2023-04-15T06:55:26.252Z,51.47
2023-04-15T07:00:30.984Z,50.77
2023-04-15T07:05:34.930Z,50.99
2023-04-15T07:10:39.080Z,51.04
2023-04-15T07:15:42.895Z,50.79
2023-04-15T07:20:47.343Z,49.67
2023-04-15T07:25:51.961Z,49.64
2023-04-15T07:30:57.674Z,49.33
2023-04-15T07:36:02.018Z,49.17
2023-04-15T07:41:05.937Z,48.36
2023-04-15T07:46:10.112Z,48.44
2023-04-15T07:51:14.024Z,47.95
2023-04-15T07:56:18.462Z,47.28
2023-04-15T08:01:23.057Z,47.31
2023-04-15T08:06:27.771Z,48.17
2023-04-15T08:11:32.005Z,47.39
2023-04-15T08:16:36.318Z,47.28
2023-04-15T08:21:41.438Z,46.99
2023-04-15T08:26:49.281Z,47.07
2023-04-15T08:31:56.136Z,47.53
2023-04-15T08:37:00.139Z,46.19
2023-04-15T08:42:07.626Z,46.00
2023-04-15T08:47:14.325Z,45.94
2023-04-15T08:52:18.630Z,46.04
2023-04-15T08:57:27.876Z,46.47
2023-04-15T09:02:32.303Z,45.23
2023-04-15T09:07:36.993Z,44.62
2023-04-15T09:12:40.993Z,45.17
2023-04-15T09:17:45.549Z,45.38
2023-04-15T09:22:50.362Z,44.78
2023-04-15T09:28:03.899Z,44.58
2023-04-15T09:33:11.306Z,44.34
2023-04-15T09:38:15.212Z,45.13
2023-04-15T09:43:19.357Z,44.13
2023-04-15T09:48:27.350Z,44.40
2023-04-15T09:53:35.498Z,44.29
2023-04-15T09:58:41.972Z,44.23
2023-04-15T10:03:46.256Z,43.99
2023-04-15T10:08:50.221Z,44.54
2023-04-15T10:13:55.216Z,44.47
2023-04-15T10:19:02.527Z,43.39
2023-04-15T10:24:13.173Z,43.32
2023-04-15T10:29:17.344Z,43.10
2023-04-15T10:34:22.338Z,44.63
2023-04-15T10:39:35.185Z,43.23
2023-04-15T10:44:43.976Z,43.92
2023-04-15T10:49:58.999Z,43.95
2023-04-15T10:55:23.969Z,43.92
2023-04-15T11:00:32.467Z,42.64
2023-04-15T11:05:42.944Z,42.44
2023-04-15T11:10:46.843Z,42.56
2023-04-15T11:15:52.271Z,42.08
2023-04-15T11:21:07.045Z,42.52
2023-04-15T11:26:12.592Z,42.68
2023-04-15T11:31:18.447Z,42.04
2023-04-15T11:36:27.489Z,43.02
2023-04-15T11:41:31.519Z,43.03
2023-04-15T11:46:35.684Z,43.35
2023-04-15T11:51:39.824Z,42.54
2023-04-15T11:56:42.872Z,41.48
2023-04-15T12:01:48.032Z,42.73
2023-04-15T12:06:50.758Z,42.48
2023-04-15T12:11:57.847Z,43.29
2023-04-15T12:17:05.737Z,42.90
2023-04-15T12:22:13.670Z,43.33
2023-04-15T12:27:17.352Z,43.59
2023-04-15T12:32:21.382Z,44.10
2023-04-15T12:37:24.351Z,44.22
2023-04-15T12:42:27.763Z,44.53
2023-04-15T12:47:30.669Z,45.32
2023-04-15T12:52:34.802Z,45.92
2023-04-15T12:57:37.737Z,45.93
2023-04-15T13:02:40.513Z,46.32
2023-04-15T13:07:43.460Z,47.28
2023-04-15T13:12:47.414Z,47.05
2023-04-15T13:17:50.531Z,48.54
2023-04-15T13:22:53.961Z,48.56
2023-04-15T13:27:57.978Z,48.82
2023-04-15T13:33:01.060Z,49.24
2023-04-15T13:38:09.033Z,49.53
2023-04-15T13:43:12.084Z,49.71
2023-04-15T13:48:14.953Z,50.06
2023-04-15T13:53:17.720Z,50.55
2023-04-15T13:58:20.725Z,51.10
2023-04-15T14:03:23.497Z,51.42
2023-04-15T14:08:26.433Z,51.91
2023-04-15T14:13:29.457Z,51.88
2023-04-15T14:18:33.902Z,52.21
2023-04-15T14:23:36.717Z,52.17
2023-04-15T14:28:39.967Z,52.74
2023-04-15T14:33:43.188Z,53.07
2023-04-15T14:38:47.510Z,52.91
2023-04-15T14:43:52.453Z,53.11
2023-04-15T14:48:55.184Z,52.94
2023-04-15T14:53:58.242Z,54.08
2023-04-15T14:59:01.380Z,53.76
2023-04-15T15:04:04.649Z,53.54
2023-04-15T15:09:07.558Z,53.45
2023-04-15T15:14:10.432Z,53.51
2023-04-15T15:19:13.142Z,54.03
2023-04-15T15:24:15.841Z,54.03
2023-04-15T15:29:18.604Z,54.21
2023-04-15T15:34:21.497Z,53.92
2023-04-15T15:39:24.852Z,53.97
2023-04-15T15:44:27.694Z,53.88
2023-04-15T15:49:30.523Z,54.51
2023-04-15T15:54:33.293Z,54.21
2023-04-15T15:59:36.174Z,54.21
2023-04-15T16:04:39.846Z,54.05
2023-04-15T16:09:43.034Z,54.55
2023-04-15T16:14:47.582Z,54.51
2023-04-15T16:19:58.669Z,54.67
2023-04-15T16:25:06.561Z,54.58
2023-04-15T16:30:10.255Z,54.80
2023-04-15T16:35:12.962Z,55.03
2023-04-15T16:40:15.877Z,54.84
2023-04-15T16:45:21.850Z,55.28
2023-04-15T16:50:25.125Z,54.95
2023-04-15T16:55:27.950Z,54.92
2023-04-15T17:00:31.637Z,55.63
2023-04-15T17:05:34.461Z,55.54
2023-04-15T17:10:37.375Z,55.53
2023-04-15T17:15:41.093Z,55.82
2023-04-15T17:21:01.645Z,56.31
2023-04-15T17:26:06.563Z,56.33
2023-04-15T17:31:10.509Z,56.83
2023-04-15T17:36:33.474Z,56.77
2023-04-15T17:41:57.772Z,56.97
2023-04-15T17:47:00.450Z,56.67
2023-04-15T17:52:23.132Z,56.88
2023-04-15T17:57:46.698Z,56.86
2023-04-15T18:03:09.413Z,56.88
2023-04-15T18:08:32.349Z,57.42
2023-04-15T18:13:55.194Z,57.34
2023-04-15T18:19:18.374Z,57.65
2023-04-15T18:24:21.423Z,57.55
2023-04-15T18:29:24.483Z,57.43
2023-04-15T18:34:27.409Z,57.42
2023-04-15T18:39:30.394Z,57.41
2023-04-15T18:44:33.449Z,57.49
2023-04-15T18:49:36.506Z,57.42
2023-04-15T18:54:39.827Z,57.63
2023-04-15T18:59:43.053Z,57.80
2023-04-15T19:04:45.887Z,58.13
2023-04-15T19:09:48.655Z,58.42
2023-04-15T19:14:51.982Z,58.39
2023-04-15T19:19:54.737Z,58.50
2023-04-15T19:24:57.897Z,58.59
2023-04-15T19:30:00.655Z,58.84
2023-04-15T19:35:03.428Z,59.00
2023-04-15T19:40:07.250Z,58.85
2023-04-15T19:45:10.349Z,59.27
2023-04-15T19:50:13.360Z,59.60
2023-04-15T19:55:16.161Z,59.83
2023-04-15T20:00:18.923Z,60.10
2023-04-15T20:05:21.766Z,60.35
2023-04-15T20:10:24.594Z,60.75
2023-04-15T20:15:27.619Z,61.04
2023-04-15T20:20:30.345Z,60.94
2023-04-15T20:25:33.190Z,61.00
2023-04-15T20:30:36.156Z,61.26
2023-04-15T20:35:39.409Z,61.69
2023-04-15T20:40:42.212Z,62.36
2023-04-15T20:45:45.111Z,63.16
2023-04-15T20:50:47.951Z,63.70
2023-04-15T20:55:50.851Z,63.78
2023-04-15T21:00:55.261Z,64.13
2023-04-15T21:05:58.110Z,64.17
2023-04-15T21:11:01.042Z,64.16
2023-04-15T21:16:03.899Z,64.63
2023-04-15T21:21:06.650Z,64.76
2023-04-15T21:26:09.680Z,65.15
2023-04-15T21:31:12.418Z,65.52
2023-04-15T21:36:15.226Z,65.74
2023-04-15T21:41:18.311Z,65.92
2023-04-15T21:46:24.919Z,65.91
2023-04-15T21:51:28.091Z,66.14
2023-04-15T21:56:30.821Z,66.24
2023-04-15T22:01:33.671Z,66.39
2023-04-15T22:06:36.495Z,66.74
2023-04-15T22:11:39.325Z,66.64
2023-04-15T22:16:42.140Z,66.97
2023-04-15T22:21:50.300Z,67.47
2023-04-15T22:26:53.033Z,67.43
2023-04-15T22:31:55.874Z,67.33
2023-04-15T22:36:58.659Z,67.81
2023-04-15T22:42:02.393Z,68.37
2023-04-15T22:47:04.925Z,68.98
2023-04-15T22:52:09.100Z,68.93
2023-04-15T22:57:14.932Z,69.61
2023-04-15T23:02:17.958Z,69.69
2023-04-15T23:07:20.785Z,69.07
2023-04-15T23:12:23.461Z,68.77
2023-04-15T23:17:27.038Z,68.16
2023-04-15T23:22:29.641Z,67.79
2023-04-15T23:27:32.429Z,67.01
2023-04-15T23:32:35.304Z,67.21
2023-04-15T23:37:38.138Z,66.35
2023-04-15T23:42:40.976Z,66.08
2023-04-15T23:47:43.758Z,65.63
2023-04-15T23:52:46.637Z,64.66
2023-04-15T23:57:49.463Z,63.51
